Agana Heights, GU (96910)

3:27 PM ChST on September 05, 2015 (GMT +1000)
Maite | | Change Station
CLOSE
Current Station
Personal Weather Station
Location: Maite, GU
Elevation: 140 ft
Nearby Weather Stations

Elev 140 ft 13.48 °N, 144.76 °E | Updated 1 second ago

Mostly Cloudy
Mostly Cloudy
87.4 °F
Feels Like 102 °F
N
7.0
Wind Variable Wind from SW
Gusts 16.0 mph

Today
High -- | Low -- °F
--% Chance of Precip.
Yesterday
High -- | Low -- °F
Precip. -- in
6:09 AM 6:29 PM
Waning Gibbous, 52% visible
Pressure 29.75 in
Visibility 10.0 miles
Clouds Scattered Clouds 2400 ft
Mostly Cloudy 3500 ft
Mostly Cloudy 5000 ft
Heat Index 102 °F
Dew Point 79 °F
Humidity 77%
Rainfall 0.00 in
Snow Depth Not available.
UV 6.1 out of 12
Pollen Not available.
Air Quality Not available.
Flu Activity Not available.
METAR PGUM 050454Z 26011G16KT 10SM SCT024 BKN035 BKN050 29/27 A2977 RMK AO2 RAB37E52 SLP073 P0000 T02890267 $
Pressure 29.75 in
Visibility 10.0 miles
Clouds Scattered Clouds 2400 ft
Mostly Cloudy 3500 ft
Mostly Cloudy 5000 ft
Heat Index 102 °F
Dew Point 79 °F
Humidity 77%
Rainfall 0.00 in
Snow Depth Not available.
UV 6.1 out of 12
Pollen Not available.
Air Quality Not available.
Flu Activity Not available.
METAR PGUM 050454Z 26011G16KT 10SM SCT024 BKN035 BKN050 29/27 A2977 RMK AO2 RAB37E52 SLP073 P0000 T02890267 $

10-Day Weather Forecast

×

Almanac

Astronomy

Sep. 05, 2015 Rise Set
Actual Time
Civil Twilight
Nautical Twilight
Astronomical Twilight
Moon
Length of Visible Light
Length of Day
Tomorrow will be .
, % of the Moon is Illuminated

Today's Extremes

State Highs State Lows

Community

WunderPhotos

Upload Photos

1,852,427 photos uploaded!

WunderBlogs® & News

Nearby

Air Quality

  Air Quality AQ Index Pollutant
Not available.

Snow Depth

Station Depth Elevation

Earthquake Activity

City Distance Mag. Time & Date
Minimum magnitude displayed is 2.5.

Coastal Water Temperatures

Place Temperature

Stations

Nearby Weather Stations

Station Location Temp. Windchill Dew Point Humidity Wind Precip. Elev Updated Type